Hightstown, New Jersey
Current Conditions -  °F | °C
As of 7:53 PM on Sunday 21 Dec 2014 (Local Time) from KTTN Reporting Station
Overcast Overcast  
Wind Chill: 33°   Ceiling: 2600
Heat Index: 33°   Visibility: 10mi
Dew Point: 23°   Wind: 3mph
Humidity: 66%   Direction: 300°WNW
Pressure: 30.34"   Gusts: NA
Location:  40.27°N, 74.52°W
Report Text: KTTN 220053Z 30003KT 10SM OVC026 01/M05 A3034 RMK AO2 SLP269 T00061050
Loading
Personal Weather Stations






























Interactive Weather Map New forecast layout! Learn more

10-Day Weather Forecast

Advertisements
Track Severe Weather on mobile